Time;durP1;ratioP1;P1;durP2;ratioP2;P2;SDS_P1;SDS_P2;PMS_P1;PMS_P2;Temp;Humidity;BMP_temperature;BMP_pressure;BME280_temperature;BME280_humidity;BME280_pressure;Samples;Min_cycle;Max_cycle;Signal;HPM_P1;HPM_P2
2022/07/28 00:02:19;;;;;;;148.02;133.93;;;15.40;73.80;;;;;;4972056;28;20466;-77
2022/07/28 00:04:46;;;;;;;141.35;128.20;;;15.30;74.10;;;;;;4988340;28;20498;-77
2022/07/28 00:07:13;;;;;;;140.23;127.32;;;15.30;74.50;;;;;;4970719;28;20073;-78
2022/07/28 00:09:41;;;;;;;139.68;126.78;;;15.20;74.60;;;;;;4972391;28;20056;-76
2022/07/28 00:12:08;;;;;;;141.98;128.57;;;15.30;74.50;;;;;;4972147;28;20055;-76
2022/07/28 00:14:35;;;;;;;141.05;127.85;;;15.20;74.50;;;;;;4969896;28;20061;-77
2022/07/28 00:17:02;;;;;;;142.60;129.18;;;15.10;75.30;;;;;;5000417;28;20047;-76
2022/07/28 00:19:29;;;;;;;139.23;126.32;;;15.10;76.30;;;;;;4972749;28;20429;-76
2022/07/28 00:21:56;;;;;;;139.48;126.57;;;15.00;76.50;;;;;;5004060;28;20426;-76
2022/07/28 00:24:23;;;;;;;138.20;125.30;;;15.00;76.60;;;;;;4971902;28;20075;-77
2022/07/28 00:26:51;;;;;;;141.18;127.82;;;15.00;76.30;;;;;;4972920;28;20073;-76
2022/07/28 00:29:18;;;;;;;138.10;125.13;;;14.90;76.40;;;;;;4986087;28;20134;-77
2022/07/28 00:31:45;;;;;;;137.40;124.65;;;14.90;75.70;;;;;;4970490;28;20813;-77
2022/07/28 00:34:12;;;;;;;138.00;125.05;;;14.90;75.80;;;;;;4968955;28;20055;-76
2022/07/28 00:36:39;;;;;;;137.57;124.65;;;14.80;76.00;;;;;;4970417;28;20054;-77
2022/07/28 00:39:06;;;;;;;136.68;123.78;;;14.80;76.30;;;;;;4969482;28;20051;-77
2022/07/28 00:41:33;;;;;;;138.18;125.18;;;14.80;76.40;;;;;;5002487;28;20143;-77
2022/07/28 00:44:01;;;;;;;136.63;123.82;;;14.80;77.40;;;;;;4986035;28;20051;-77
2022/07/28 00:46:28;;;;;;;135.43;122.72;;;14.80;77.80;;;;;;4985403;28;20059;-77
2022/07/28 00:48:55;;;;;;;137.13;124.22;;;14.70;78.10;;;;;;4968488;28;20047;-76
2022/07/28 00:51:24;;;;;;;140.88;127.57;;;14.70;78.60;;;;;;4969013;28;20043;-77
2022/07/28 00:53:51;;;;;;;142.10;128.63;;;14.60;78.60;;;;;;4970155;28;20055;-76
2022/07/28 00:56:19;;;;;;;144.63;130.52;;;14.60;78.30;;;;;;5002829;28;20058;-77
2022/07/28 00:58:47;;;;;;;147.50;132.90;;;14.60;78.40;;;;;;4986529;28;20057;-76
2022/07/28 01:01:18;;;;;;;151.65;136.30;;;14.50;78.50;;;;;;4969765;28;20051;-76
2022/07/28 01:03:47;;;;;;;139.93;126.43;;;14.50;78.90;;;;;;4970937;28;22420;-76
2022/07/28 01:06:28;;;;;;;138.52;125.40;;;14.50;79.10;;;;;;4971521;28;20153;-77
2022/07/28 01:09:02;;;;;;;137.63;124.53;;;14.50;79.00;;;;;;4984006;28;20183;-76
2022/07/28 01:11:34;;;;;;;137.00;123.80;;;14.50;79.10;;;;;;4970875;28;20055;-77
2022/07/28 01:14:09;;;;;;;138.73;125.22;;;14.40;78.70;;;;;;4985555;28;20275;-77
2022/07/28 01:16:44;;;;;;;139.45;125.93;;;14.40;78.60;;;;;;4971527;28;20082;-77
2022/07/28 01:19:28;;;;;;;138.40;125.20;;;14.40;78.80;;;;;;4970830;28;20593;-77
2022/07/28 01:21:57;;;;;;;138.63;125.30;;;14.30;78.70;;;;;;5000681;28;20528;-76
2022/07/28 01:24:27;;;;;;;138.40;125.10;;;14.30;78.70;;;;;;4967252;28;20547;-76
2022/07/28 01:26:58;;;;;;;140.38;127.00;;;14.30;78.80;;;;;;5001045;28;20518;-76
2022/07/28 01:29:52;;;;;;;135.88;122.88;;;14.20;79.00;;;;;;5002171;28;20109;-77
2022/07/28 01:32:24;;;;;;;138.47;124.83;;;14.20;79.00;;;;;;4968327;28;20081;-76
2022/07/28 01:34:57;;;;;;;139.10;125.70;;;14.20;79.10;;;;;;5000004;28;20252;-77
2022/07/28 01:37:26;;;;;;;136.73;123.72;;;14.10;79.10;;;;;;5001949;28;20533;-77
2022/07/28 01:39:56;;;;;;;139.32;126.13;;;14.10;79.40;;;;;;4999632;28;20055;-76
2022/07/28 01:42:26;;;;;;;137.85;124.68;;;14.10;79.80;;;;;;4970365;28;20055;-77
2022/07/28 01:44:55;;;;;;;137.30;124.18;;;14.10;79.80;;;;;;4969273;28;20091;-76
2022/07/28 01:47:25;;;;;;;138.13;125.18;;;14.10;79.90;;;;;;4969368;28;20127;-77
2022/07/28 01:49:53;;;;;;;136.30;123.22;;;14.00;80.10;;;;;;4971783;28;20062;-76
2022/07/28 01:52:20;;;;;;;132.85;119.90;;;14.00;80.40;;;;;;4972385;28;20059;-77
2022/07/28 01:54:49;;;;;;;134.60;121.60;;;14.00;80.60;;;;;;4971039;28;20568;-77
2022/07/28 01:57:17;;;;;;;135.77;122.68;;;14.00;81.10;;;;;;5000473;28;20042;-76
2022/07/28 01:59:46;;;;;;;132.68;119.88;;;13.90;81.60;;;;;;5005139;28;20126;-76
2022/07/28 02:02:17;;;;;;;129.77;116.93;;;13.90;81.90;;;;;;5005088;28;20043;-76
2022/07/28 02:04:47;;;;;;;133.25;120.35;;;13.90;82.00;;;;;;4972182;28;20103;-76
2022/07/28 02:07:16;;;;;;;136.57;123.18;;;13.90;82.30;;;;;;4988346;28;20604;-76
2022/07/28 02:09:45;;;;;;;136.13;122.85;;;13.80;82.50;;;;;;5004913;28;20050;-77
2022/07/28 02:12:14;;;;;;;135.45;122.15;;;13.80;82.80;;;;;;5005164;28;20139;-76
2022/07/28 02:14:42;;;;;;;134.15;121.05;;;13.70;83.20;;;;;;4975601;28;20146;-76
2022/07/28 02:17:16;;;;;;;135.23;122.13;;;13.70;83.40;;;;;;5007374;28;20056;-77
2022/07/28 02:19:47;;;;;;;132.38;119.35;;;13.70;83.50;;;;;;4975579;28;20055;-77
2022/07/28 02:22:16;;;;;;;131.82;119.03;;;13.70;83.80;;;;;;4971486;28;20142;-76
2022/07/28 02:24:44;;;;;;;133.07;120.07;;;13.60;84.00;;;;;;5005498;28;20134;-77
2022/07/28 02:27:16;;;;;;;132.18;119.28;;;13.60;84.10;;;;;;5006511;28;20054;-77
2022/07/28 02:29:47;;;;;;;131.65;118.82;;;13.60;84.40;;;;;;4988650;28;20058;-76
2022/07/28 02:32:19;;;;;;;133.98;120.97;;;13.60;83.80;;;;;;4987346;28;20051;-77
2022/07/28 02:34:49;;;;;;;132.30;119.40;;;13.60;83.80;;;;;;4969637;28;20091;-76
2022/07/28 02:37:18;;;;;;;132.27;119.28;;;13.60;84.00;;;;;;4973565;28;20047;-77
2022/07/28 02:39:49;;;;;;;130.65;117.80;;;13.50;84.00;;;;;;4988539;28;20493;-76
2022/07/28 02:42:22;;;;;;;132.10;119.20;;;13.50;84.40;;;;;;4971879;28;20071;-76
2022/07/28 02:44:55;;;;;;;129.98;117.15;;;13.50;84.70;;;;;;4970946;28;20054;-76
2022/07/28 02:47:26;;;;;;;131.23;118.28;;;13.50;84.50;;;;;;5005357;28;20055;-76
2022/07/28 02:49:57;;;;;;;131.02;118.03;;;13.50;84.20;;;;;;4974015;28;20528;-76
2022/07/28 02:52:25;;;;;;;133.95;120.72;;;13.40;84.10;;;;;;5004126;28;20051;-76
2022/07/28 02:54:53;;;;;;;132.80;119.43;;;13.40;84.40;;;;;;4972360;28;20059;-77
2022/07/28 02:57:22;;;;;;;133.15;119.95;;;13.40;84.40;;;;;;4999390;28;20046;-77
2022/07/28 02:59:50;;;;;;;132.73;119.50;;;13.40;84.30;;;;;;4971799;28;20807;-76
2022/07/28 03:02:20;;;;;;;130.63;117.50;;;13.30;84.20;;;;;;4972972;28;20204;-76
2022/07/28 03:04:59;;;;;;;133.23;119.93;;;13.30;84.20;;;;;;5006702;28;20138;-76
2022/07/28 03:07:28;;;;;;;133.13;119.72;;;13.30;84.30;;;;;;4970267;28;20047;-77
2022/07/28 03:09:55;;;;;;;132.68;119.38;;;13.30;84.80;;;;;;5003748;28;20055;-77
2022/07/28 03:12:22;;;;;;;134.52;121.13;;;13.30;85.00;;;;;;5005673;28;20051;-76
2022/07/28 03:14:49;;;;;;;134.30;120.63;;;13.20;85.10;;;;;;4987092;28;20946;-76
2022/07/28 03:17:18;;;;;;;138.05;124.13;;;13.20;85.30;;;;;;4973476;28;20463;-76
2022/07/28 03:19:45;;;;;;;137.82;123.78;;;13.10;86.00;;;;;;4989172;28;20062;-76
2022/07/28 03:22:13;;;;;;;137.35;123.22;;;13.00;86.40;;;;;;4975191;28;20051;-76
2022/07/28 03:24:44;;;;;;;140.43;125.82;;;12.90;86.60;;;;;;5005782;28;20055;-76
2022/07/28 03:27:17;;;;;;;139.23;124.63;;;12.80;86.60;;;;;;4970221;28;20083;-77
2022/07/28 03:29:48;;;;;;;141.27;125.97;;;12.80;87.20;;;;;;4971584;28;20145;-76
2022/07/28 03:32:18;;;;;;;131.20;117.82;;;12.70;88.10;;;;;;4972416;28;20137;-76
2022/07/28 03:34:44;;;;;;;130.85;117.22;;;12.70;88.60;;;;;;5005903;28;20061;-76
2022/07/28 03:37:14;;;;;;;134.13;120.30;;;12.60;89.00;;;;;;4988028;28;20806;-77
2022/07/28 03:39:46;;;;;;;133.77;119.97;;;12.60;89.10;;;;;;4971170;28;20062;-76
2022/07/28 03:42:15;;;;;;;135.90;121.57;;;12.60;89.20;;;;;;5005635;28;20051;-76
2022/07/28 03:44:42;;;;;;;136.38;121.82;;;12.60;89.60;;;;;;4974236;28;20059;-76
2022/07/28 03:47:09;;;;;;;140.93;125.60;;;12.50;89.90;;;;;;4985103;28;20046;-76
2022/07/28 03:49:37;;;;;;;137.18;122.47;;;12.50;90.10;;;;;;4970915;28;20053;-76
2022/07/28 03:52:04;;;;;;;136.63;121.63;;;12.50;90.20;;;;;;4972155;28;20075;-77
2022/07/28 03:54:33;;;;;;;149.65;129.80;;;12.50;90.30;;;;;;4986378;28;20516;-77
2022/07/28 03:57:01;;;;;;;206.13;165.23;;;12.60;90.20;;;;;;4969904;28;20190;-76
2022/07/28 03:59:28;;;;;;;135.18;120.88;;;12.60;90.10;;;;;;4970905;28;20524;-76
2022/07/28 04:01:55;;;;;;;144.48;126.85;;;12.60;90.10;;;;;;4971324;28;20047;-77
2022/07/28 04:04:22;;;;;;;150.45;131.07;;;12.60;89.80;;;;;;4972508;28;20505;-76
2022/07/28 04:06:49;;;;;;;176.45;141.95;;;12.60;89.50;;;;;;4971649;28;20058;-76
2022/07/28 04:09:16;;;;;;;174.73;143.73;;;12.60;89.50;;;;;;5003928;28;20111;-76
2022/07/28 04:11:43;;;;;;;208.15;162.27;;;12.60;89.70;;;;;;4986351;28;20047;-77
2022/07/28 04:14:11;;;;;;;196.13;157.30;;;12.60;89.60;;;;;;4969243;28;20077;-77
2022/07/28 04:16:38;;;;;;;194.07;153.45;;;12.60;89.50;;;;;;4986596;28;20118;-76
2022/07/28 04:19:06;;;;;;;183.27;146.65;;;12.60;89.40;;;;;;4985473;28;20051;-76
2022/07/28 04:21:33;;;;;;;190.93;152.48;;;12.60;89.60;;;;;;4969999;28;20083;-76
2022/07/28 04:24:00;;;;;;;191.05;152.70;;;12.60;90.00;;;;;;4972171;28;20137;-77
2022/07/28 04:26:27;;;;;;;187.90;148.77;;;12.60;90.00;;;;;;4971890;28;20123;-77
2022/07/28 04:28:54;;;;;;;178.55;144.60;;;12.60;90.10;;;;;;4988047;28;20534;-76
2022/07/28 04:31:22;;;;;;;170.27;139.63;;;12.60;90.10;;;;;;4973661;28;20680;-77
2022/07/28 04:33:49;;;;;;;146.30;128.23;;;12.60;90.20;;;;;;4972273;28;20773;-76
2022/07/28 04:36:16;;;;;;;138.55;123.68;;;12.60;90.30;;;;;;5004176;28;20055;-76
2022/07/28 04:38:43;;;;;;;137.80;122.80;;;12.60;90.30;;;;;;4985842;28;20061;-76
2022/07/28 04:41:10;;;;;;;134.57;119.88;;;12.60;90.30;;;;;;5003461;28;20112;-77
2022/07/28 04:43:37;;;;;;;140.02;124.57;;;12.60;90.40;;;;;;4972698;28;20058;-77
2022/07/28 04:46:04;;;;;;;138.80;123.72;;;12.60;90.30;;;;;;4988499;28;20130;-77
2022/07/28 04:48:32;;;;;;;139.52;124.15;;;12.50;90.20;;;;;;4972373;28;20504;-77
2022/07/28 04:50:59;;;;;;;135.98;121.25;;;12.50;90.20;;;;;;4971546;28;20055;-76
2022/07/28 04:53:27;;;;;;;139.55;123.32;;;12.60;90.20;;;;;;4970801;28;20062;-76
2022/07/28 04:55:56;;;;;;;137.27;122.65;;;12.50;90.20;;;;;;5001979;28;20078;-77
2022/07/28 04:58:23;;;;;;;140.23;125.22;;;12.50;90.30;;;;;;5002643;28;20047;-77
2022/07/28 05:00:51;;;;;;;142.05;126.82;;;12.50;90.30;;;;;;4968746;28;20057;-75
2022/07/28 05:03:18;;;;;;;149.68;125.75;;;12.50;90.50;;;;;;5002169;28;20134;-77
2022/07/28 05:05:46;;;;;;;148.45;126.00;;;12.40;90.80;;;;;;4970523;28;20054;-77
2022/07/28 05:08:13;;;;;;;166.05;125.72;;;12.40;91.00;;;;;;4968342;28;20086;-77
2022/07/28 05:10:40;;;;;;;139.07;120.10;;;12.40;91.00;;;;;;5004063;28;20059;-77
2022/07/28 05:13:07;;;;;;;147.10;124.18;;;12.40;91.00;;;;;;4969204;28;20061;-77
2022/07/28 05:15:34;;;;;;;136.88;121.85;;;12.40;91.10;;;;;;4972607;28;20145;-77
2022/07/28 05:18:01;;;;;;;138.25;123.00;;;12.40;91.20;;;;;;4985536;28;20059;-76
2022/07/28 05:20:28;;;;;;;136.18;121.22;;;12.40;91.30;;;;;;4970009;28;20057;-77
2022/07/28 05:22:57;;;;;;;144.30;126.43;;;12.40;91.50;;;;;;4968467;28;20071;-78
2022/07/28 05:25:25;;;;;;;141.43;123.35;;;12.40;91.50;;;;;;4982883;28;20056;-78
2022/07/28 05:27:53;;;;;;;142.43;126.82;;;12.40;91.70;;;;;;4968949;28;20059;-77
2022/07/28 05:30:20;;;;;;;146.95;128.40;;;12.40;92.10;;;;;;4967293;28;20055;-78
2022/07/28 05:32:47;;;;;;;145.90;127.65;;;12.50;92.10;;;;;;4970489;28;20529;-77
2022/07/28 05:35:15;;;;;;;156.27;125.55;;;12.40;92.10;;;;;;5004425;28;20062;-78
2022/07/28 05:37:42;;;;;;;144.00;124.53;;;12.50;92.30;;;;;;5003529;28;20592;-77
2022/07/28 05:40:13;;;;;;;144.02;126.97;;;12.50;92.40;;;;;;4973006;28;20051;-77
2022/07/28 05:42:41;;;;;;;152.15;126.15;;;12.50;92.60;;;;;;5006841;28;20066;-77
2022/07/28 05:45:09;;;;;;;149.50;126.18;;;12.60;92.80;;;;;;4973506;28;20142;-78
2022/07/28 05:47:46;;;;;;;144.05;126.15;;;12.60;93.20;;;;;;4973894;28;20059;-78
2022/07/28 05:50:14;;;;;;;147.70;127.47;;;12.60;93.20;;;;;;5005812;28;20059;-78
2022/07/28 05:52:41;;;;;;;201.05;157.40;;;12.70;93.20;;;;;;4971613;28;20047;-77
2022/07/28 05:55:09;;;;;;;193.40;153.02;;;12.70;93.40;;;;;;4969128;28;20542;-77
2022/07/28 05:57:38;;;;;;;191.30;154.93;;;12.70;93.50;;;;;;5012506;28;20054;-78
2022/07/28 06:00:07;;;;;;;212.10;163.98;;;12.80;94.20;;;;;;4982538;28;20135;-78
2022/07/28 06:02:38;;;;;;;202.15;160.27;;;12.80;94.40;;;;;;4969036;28;20516;-78
2022/07/28 06:05:06;;;;;;;213.93;173.05;;;12.90;94.40;;;;;;5002928;28;20958;-78
2022/07/28 06:07:33;;;;;;;204.27;156.95;;;12.90;94.20;;;;;;5001455;28;20058;-78
2022/07/28 06:10:00;;;;;;;149.10;132.05;;;12.90;94.30;;;;;;4972940;28;20138;-78
2022/07/28 06:12:27;;;;;;;153.90;132.50;;;13.00;94.60;;;;;;4986864;28;20066;-77
2022/07/28 06:14:55;;;;;;;156.65;133.50;;;13.00;94.80;;;;;;5001664;28;20058;-77
2022/07/28 06:17:22;;;;;;;207.10;162.75;;;13.10;94.90;;;;;;4966617;28;20055;-77
2022/07/28 06:19:49;;;;;;;150.30;131.45;;;13.10;95.10;;;;;;4985914;28;20082;-77
2022/07/28 06:22:16;;;;;;;144.23;125.65;;;13.20;95.30;;;;;;4980022;28;20047;-79
2022/07/28 06:24:43;;;;;;;140.50;125.15;;;13.20;95.40;;;;;;4979623;28;20102;-79
2022/07/28 06:27:10;;;;;;;147.68;129.25;;;13.30;95.40;;;;;;4984136;28;20516;-78
2022/07/28 06:29:37;;;;;;;158.60;133.48;;;13.40;95.60;;;;;;4988090;28;20511;-79
2022/07/28 06:32:05;;;;;;;189.18;150.60;;;13.50;95.50;;;;;;5006540;28;20079;-78
2022/07/28 06:34:32;;;;;;;153.55;133.68;;;13.60;95.70;;;;;;4973399;28;20422;-78
2022/07/28 06:36:59;;;;;;;156.45;135.63;;;13.60;95.70;;;;;;4971820;28;20135;-77
2022/07/28 06:39:26;;;;;;;159.57;133.90;;;13.70;95.90;;;;;;4977392;28;20063;-78
2022/07/28 06:41:53;;;;;;;219.45;175.52;;;13.80;95.80;;;;;;4973855;28;20589;-79
2022/07/28 06:44:20;;;;;;;203.30;168.25;;;13.90;95.80;;;;;;4974044;28;20048;-78
2022/07/28 06:46:48;;;;;;;157.80;137.05;;;13.90;96.00;;;;;;4986192;28;20054;-76
2022/07/28 06:49:17;;;;;;;203.35;170.40;;;14.00;95.90;;;;;;4987119;28;20055;-78
2022/07/28 06:51:44;;;;;;;208.07;171.63;;;14.10;95.80;;;;;;4975290;28;20597;-78
2022/07/28 06:54:11;;;;;;;194.65;159.65;;;14.20;95.60;;;;;;4972175;28;20047;-78
2022/07/28 06:56:38;;;;;;;209.68;167.07;;;14.20;95.60;;;;;;4973539;28;20059;-77
2022/07/28 06:59:05;;;;;;;205.63;164.70;;;14.30;95.60;;;;;;4974048;28;20067;-77
2022/07/28 07:01:32;;;;;;;195.50;161.70;;;14.40;95.50;;;;;;4985881;28;20176;-77
2022/07/28 07:03:59;;;;;;;198.70;167.02;;;14.40;95.40;;;;;;4968749;28;20047;-78
2022/07/28 07:06:28;;;;;;;189.63;164.45;;;14.50;95.40;;;;;;4970491;28;20407;-77
2022/07/28 07:08:55;;;;;;;191.23;165.88;;;14.60;95.30;;;;;;4968270;28;20444;-77
2022/07/28 07:11:21;;;;;;;173.30;147.70;;;14.60;95.30;;;;;;4968102;28;20818;-77
2022/07/28 07:13:48;;;;;;;204.85;176.20;;;14.70;95.30;;;;;;4970930;28;20138;-77
2022/07/28 07:16:16;;;;;;;194.90;168.68;;;14.80;95.20;;;;;;4989373;28;20047;-76
2022/07/28 07:18:43;;;;;;;200.77;173.10;;;14.80;94.90;;;;;;5005612;28;20055;-77
2022/07/28 07:21:10;;;;;;;218.95;174.77;;;14.80;95.00;;;;;;4974021;28;20561;-77
2022/07/28 07:23:38;;;;;;;196.85;165.38;;;14.90;94.80;;;;;;4973248;28;20054;-76
2022/07/28 07:26:05;;;;;;;201.23;169.65;;;15.00;94.70;;;;;;4974023;28;20043;-81
2022/07/28 07:28:33;;;;;;;197.90;169.20;;;15.00;94.70;;;;;;4982767;28;20047;-84
2022/07/28 07:31:00;;;;;;;189.63;165.93;;;15.10;94.60;;;;;;4992863;28;20058;-80
2022/07/28 07:33:27;;;;;;;188.77;167.07;;;15.20;94.70;;;;;;5009113;28;20043;-83
2022/07/28 07:35:54;;;;;;;185.20;164.88;;;15.30;94.70;;;;;;4992627;28;20139;-81
2022/07/28 07:38:21;;;;;;;179.98;159.13;;;15.30;94.60;;;;;;5009920;28;20054;-84
2022/07/28 07:40:50;;;;;;;184.65;164.35;;;15.30;94.60;;;;;;4969279;28;20141;-86
2022/07/28 07:43:18;;;;;;;194.57;173.18;;;15.40;94.60;;;;;;4970446;28;20050;-88
2022/07/28 07:45:46;;;;;;;181.75;161.95;;;15.50;94.50;;;;;;4965610;28;20048;-87
2022/07/28 07:48:13;;;;;;;183.68;164.07;;;15.50;94.30;;;;;;5003490;28;20051;-86
2022/07/28 07:50:40;;;;;;;179.40;159.80;;;15.60;94.10;;;;;;4994924;28;20046;-87
2022/07/28 07:53:07;;;;;;;181.98;162.18;;;15.70;94.00;;;;;;4991184;28;20543;-86
2022/07/28 07:55:34;;;;;;;179.63;160.23;;;15.70;94.10;;;;;;4973930;28;20067;-86
2022/07/28 07:58:04;;;;;;;187.25;167.18;;;15.80;93.80;;;;;;4975054;28;20110;-86
2022/07/28 08:00:32;;;;;;;172.98;154.25;;;15.90;93.80;;;;;;4971839;28;20059;-88
2022/07/28 08:03:00;;;;;;;188.13;168.35;;;15.90;93.70;;;;;;4989090;28;20048;-86
2022/07/28 08:05:27;;;;;;;182.02;162.57;;;16.00;93.10;;;;;;4976750;28;20055;-87
2022/07/28 08:07:54;;;;;;;189.10;169.02;;;16.10;93.00;;;;;;4974669;28;20438;-87
2022/07/28 08:10:21;;;;;;;182.27;163.18;;;16.10;92.90;;;;;;4974747;28;20059;-87
2022/07/28 08:12:48;;;;;;;178.52;159.82;;;16.20;92.50;;;;;;4990978;28;20067;-85
2022/07/28 08:15:16;;;;;;;181.48;162.48;;;16.30;91.70;;;;;;4991396;28;20086;-85
2022/07/28 08:17:43;;;;;;;238.80;160.90;;;16.40;91.20;;;;;;4990298;28;20055;-87
2022/07/28 08:20:11;;;;;;;184.68;165.07;;;16.50;90.70;;;;;;4973879;28;20055;-84
2022/07/28 08:22:47;;;;;;;179.77;161.30;;;16.60;90.20;;;;;;4974344;28;20126;-88
2022/07/28 08:25:14;;;;;;;174.40;156.07;;;16.70;89.30;;;;;;4971265;28;20580;-81
2022/07/28 08:27:41;;;;;;;172.43;154.13;;;16.80;89.00;;;;;;4996299;28;20055;-85
2022/07/28 08:30:09;;;;;;;167.23;150.43;;;16.80;88.90;;;;;;4977115;28;20099;-88
2022/07/28 08:32:38;;;;;;;169.07;151.38;;;16.90;88.40;;;;;;4981146;28;20620;-84
2022/07/28 08:35:06;;;;;;;190.82;171.52;;;17.00;87.50;;;;;;4985222;28;20058;-85
2022/07/28 08:37:33;;;;;;;187.70;168.60;;;17.10;86.30;;;;;;4978643;28;20047;-88
2022/07/28 08:40:00;;;;;;;187.27;168.27;;;17.20;85.30;;;;;;4996361;28;20059;-86
2022/07/28 08:42:37;;;;;;;180.48;162.15;;;17.30;84.70;;;;;;4986119;28;20047;-86
2022/07/28 08:45:06;;;;;;;180.75;162.38;;;17.30;82.60;;;;;;4996095;28;20051;-83
2022/07/28 08:47:35;;;;;;;178.82;160.55;;;17.40;82.40;;;;;;4999407;28;20097;-86
2022/07/28 08:50:04;;;;;;;172.55;155.15;;;17.50;81.50;;;;;;4972459;28;20058;-84
2022/07/28 08:52:33;;;;;;;172.88;155.25;;;17.50;81.00;;;;;;4967876;28;20051;-83
2022/07/28 08:55:03;;;;;;;170.18;152.57;;;17.60;80.30;;;;;;4989655;28;20536;-83
2022/07/28 08:57:34;;;;;;;176.82;159.02;;;17.70;80.20;;;;;;4972162;28;20529;-80
2022/07/28 09:00:02;;;;;;;167.23;149.93;;;17.70;79.40;;;;;;5004904;28;20043;-80
2022/07/28 09:02:29;;;;;;;172.55;154.75;;;17.70;79.00;;;;;;4973086;28;20061;-80
2022/07/28 09:04:59;;;;;;;168.55;151.10;;;17.70;80.00;;;;;;4972618;28;20585;-80
2022/07/28 09:07:27;;;;;;;170.35;152.68;;;17.70;80.70;;;;;;4972444;28;20779;-80
2022/07/28 09:09:54;;;;;;;171.13;153.45;;;17.80;81.70;;;;;;5003051;28;20047;-80
2022/07/28 09:12:21;;;;;;;167.15;150.38;;;17.80;82.50;;;;;;4972648;28;20052;-80
2022/07/28 09:14:48;;;;;;;178.95;161.10;;;17.80;82.90;;;;;;4972494;28;20442;-80
2022/07/28 09:17:17;;;;;;;174.77;157.25;;;17.90;83.30;;;;;;4972454;28;20059;-80
2022/07/28 09:19:44;;;;;;;176.13;158.18;;;17.90;83.40;;;;;;5003418;28;20058;-80
2022/07/28 09:22:12;;;;;;;175.65;158.25;;;17.90;83.00;;;;;;4989086;28;20601;-80
2022/07/28 09:24:43;;;;;;;174.18;156.55;;;17.90;83.40;;;;;;4972875;28;20043;-80
2022/07/28 09:27:12;;;;;;;175.63;158.10;;;17.90;83.70;;;;;;4972795;28;20055;-80
2022/07/28 09:29:41;;;;;;;169.35;152.85;;;17.90;83.70;;;;;;4972814;28;20055;-80
2022/07/28 09:32:08;;;;;;;180.80;162.95;;;18.00;83.70;;;;;;4972829;28;20224;-80
2022/07/28 09:34:43;;;;;;;176.55;158.25;;;17.90;83.60;;;;;;4972616;28;20095;-80
2022/07/28 09:37:18;;;;;;;194.82;175.63;;;18.00;83.30;;;;;;4999841;22;20081;-80
2022/07/28 09:39:47;;;;;;;264.02;174.55;;;18.00;83.20;;;;;;5010330;28;20051;-80
2022/07/28 09:42:14;;;;;;;188.88;171.23;;;18.00;83.40;;;;;;5009692;28;20050;-81
2022/07/28 09:44:41;;;;;;;194.50;176.35;;;18.00;83.70;;;;;;5002874;28;20451;-80
2022/07/28 09:47:23;;;;;;;193.15;175.20;;;18.10;84.00;;;;;;5008819;28;20249;-80
2022/07/28 09:49:50;;;;;;;190.80;173.15;;;18.10;84.20;;;;;;5003280;28;20480;-80
2022/07/28 09:52:28;;;;;;;194.25;175.75;;;18.10;83.80;;;;;;5006535;28;20069;-81
2022/07/28 09:55:05;;;;;;;188.68;170.85;;;18.20;83.90;;;;;;5004056;28;20050;-80
2022/07/28 09:57:34;;;;;;;191.18;172.15;;;18.20;84.10;;;;;;5003217;28;20117;-80
2022/07/28 10:00:01;;;;;;;192.60;174.70;;;18.30;83.20;;;;;;5004449;28;20085;-80
2022/07/28 10:02:31;;;;;;;196.85;178.85;;;18.30;82.80;;;;;;5005694;28;20124;-78
2022/07/28 10:04:59;;;;;;;199.05;180.80;;;18.30;83.10;;;;;;4991526;28;20051;-80
2022/07/28 10:07:28;;;;;;;197.27;179.10;;;18.40;83.40;;;;;;4986695;28;20079;-80
2022/07/28 10:10:00;;;;;;;199.02;181.00;;;18.40;83.50;;;;;;5007306;28;20125;-80
2022/07/28 10:12:30;;;;;;;200.70;182.52;;;18.50;82.90;;;;;;5002237;28;20127;-81
2022/07/28 10:14:59;;;;;;;200.85;182.50;;;18.50;82.00;;;;;;4993746;28;20061;-81
2022/07/28 10:17:28;;;;;;;201.35;182.65;;;18.60;82.00;;;;;;5006394;28;20059;-79
2022/07/28 10:19:57;;;;;;;204.02;185.60;;;18.60;82.20;;;;;;4991467;28;20054;-80
2022/07/28 10:22:27;;;;;;;190.18;173.05;;;18.70;82.30;;;;;;5005559;28;20129;-79
2022/07/28 10:24:56;;;;;;;189.15;171.85;;;18.70;82.40;;;;;;4992542;28;20081;-80
2022/07/28 10:27:24;;;;;;;199.00;180.95;;;18.80;82.40;;;;;;4992711;28;20046;-79
2022/07/28 10:29:57;;;;;;;200.48;182.00;;;18.80;81.70;;;;;;5001516;28;20436;-79
2022/07/28 10:32:24;;;;;;;194.48;176.95;;;18.90;81.20;;;;;;4992402;28;21581;-80
2022/07/28 10:34:55;;;;;;;197.73;180.25;;;19.00;81.60;;;;;;5009763;28;20068;-79
2022/07/28 10:37:26;;;;;;;194.48;176.88;;;19.00;81.10;;;;;;5010383;28;20057;-79
2022/07/28 10:40:01;;;;;;;193.63;176.45;;;19.10;80.10;;;;;;5009013;28;20055;-79
2022/07/28 10:42:29;;;;;;;196.25;178.73;;;19.20;79.10;;;;;;5006123;28;20062;-78
2022/07/28 10:44:58;;;;;;;195.00;177.60;;;19.20;78.90;;;;;;5006774;28;20142;-78
2022/07/28 10:47:26;;;;;;;174.38;159.18;;;19.20;79.00;;;;;;4994093;28;20066;-78
2022/07/28 10:49:53;;;;;;;189.45;172.82;;;19.30;79.10;;;;;;5007564;28;20112;-79
2022/07/28 10:52:21;;;;;;;194.82;177.73;;;19.30;79.10;;;;;;5010522;28;20077;-78
2022/07/28 10:54:58;;;;;;;192.75;176.00;;;19.40;78.90;;;;;;4993089;28;20047;-77
2022/07/28 10:57:26;;;;;;;183.95;167.18;;;19.50;79.00;;;;;;5010199;28;20049;-76
2022/07/28 11:00:07;;;;;;;189.45;171.90;;;19.50;77.90;;;;;;5010164;28;20467;-75
2022/07/28 11:02:45;;;;;;;184.73;168.25;;;19.50;77.10;;;;;;5002496;28;20126;-80
2022/07/28 11:05:32;;;;;;;191.77;174.77;;;19.60;76.90;;;;;;5009239;28;20042;-76
2022/07/28 11:08:02;;;;;;;196.57;178.98;;;19.60;76.90;;;;;;5002014;28;20050;-75
2022/07/28 11:10:41;;;;;;;191.32;174.48;;;19.60;76.90;;;;;;5013183;28;20043;-75
2022/07/28 11:13:23;;;;;;;199.65;181.82;;;19.60;77.00;;;;;;5005678;28;20129;-74
2022/07/28 11:15:52;;;;;;;191.73;174.93;;;19.70;77.60;;;;;;5002981;28;20078;-74
2022/07/28 11:18:19;;;;;;;197.18;180.05;;;19.60;76.60;;;;;;5016555;28;20950;-74
2022/07/28 11:21:09;;;;;;;202.98;185.23;;;19.70;76.10;;;;;;5005740;28;20047;-74
2022/07/28 11:23:56;;;;;;;201.05;183.90;;;19.70;77.60;;;;;;5006485;28;20144;-74
2022/07/28 11:26:33;;;;;;;167.40;152.75;;;19.70;75.30;;;;;;5004867;28;20428;-79
2022/07/28 11:29:22;;;;;;;171.80;156.93;;;19.70;75.10;;;;;;5001047;28;20847;-79
2022/07/28 11:31:58;;;;;;;167.88;153.38;;;19.70;75.40;;;;;;5022269;28;20128;-79
2022/07/28 11:34:26;;;;;;;163.80;149.93;;;19.80;75.80;;;;;;4990223;28;20162;-80
2022/07/28 11:37:04;;;;;;;162.60;149.10;;;19.80;75.60;;;;;;5004683;28;20050;-80
2022/07/28 11:39:32;;;;;;;159.50;146.00;;;19.80;75.20;;;;;;5007167;28;20050;-80
2022/07/28 11:41:59;;;;;;;161.18;147.68;;;19.80;74.70;;;;;;5009122;28;20450;-79
2022/07/28 11:44:28;;;;;;;160.60;147.45;;;19.80;75.00;;;;;;5007472;28;20050;-80
2022/07/28 11:47:15;;;;;;;159.32;146.18;;;19.90;75.20;;;;;;5007226;28;20058;-79
2022/07/28 11:49:42;;;;;;;164.18;150.63;;;19.90;75.70;;;;;;5006082;28;20141;-79
2022/07/28 11:52:20;;;;;;;164.25;150.77;;;20.00;75.10;;;;;;5006889;28;20051;-78
2022/07/28 11:54:56;;;;;;;164.93;151.45;;;20.00;74.60;;;;;;4993726;28;20050;-90
2022/07/28 11:57:25;;;;;;;161.18;147.93;;;20.10;75.20;;;;;;4996597;28;20043;-91
2022/07/28 12:00:00;;;;;;;162.18;148.57;;;20.10;74.30;;;;;;5000212;28;20050;-87
2022/07/28 12:02:31;;;;;;;158.38;145.18;;;20.20;73.80;;;;;;4998545;28;20051;-82
2022/07/28 12:05:10;;;;;;;154.23;141.55;;;20.30;73.30;;;;;;5010272;28;20055;-84
2022/07/28 12:07:40;;;;;;;160.13;146.77;;;20.30;72.20;;;;;;5003843;28;20110;-85
2022/07/28 12:10:25;;;;;;;162.32;149.18;;;20.40;71.70;;;;;;5003802;28;20105;-84
2022/07/28 12:12:53;;;;;;;164.43;151.05;;;20.40;71.10;;;;;;4985765;28;20054;-85
2022/07/28 12:15:20;;;;;;;160.45;147.35;;;20.50;71.20;;;;;;5007327;28;20131;-85
2022/07/28 12:17:49;;;;;;;164.60;151.32;;;20.50;71.20;;;;;;5007530;28;20054;-85
2022/07/28 12:20:17;;;;;;;166.50;153.05;;;20.60;71.60;;;;;;5007956;28;20137;-83